Skip to main content.
 TIME   TEMPERATURE   WINDSPEED   DIRECTION   HUMIDITY   BAROMETER   RAINFALL 
1:55 13.0°C (55.4°F) 14.8 kmh (9.2 mph) NE 81% 1028.1hPa (30.36 inHg) 0.0mm (0.00 in.)
0:55 13.0°C (55.4 °F) 11.1 kmh (6.9 mph) NE 81% 1029.1hPa (30.39 inHg) 0.0mm (0.00 in.)
23:55 13.0°C (55.4 °F) 11.1 kmh (6.9 mph) NE 81% 1029.1hPa (30.39 inHg) 0.0mm (0.00 in.)
22:55 13.0°C (55.4 °F) 9.3 kmh (5.8 mph) NE 81% 1029.1hPa (30.39 inHg) 0.0mm (0.00 in.)
21:55 12.0°C (53.6 °F) 9.3 kmh (5.8 mph) NE 87% 1029.1hPa (30.39 inHg) 0.0mm (0.00 in.)
20:55 12.0°C (53.6 °F) 7.4 kmh (4.6 mph) NNE 87% 1029.1hPa (30.39 inHg) 0.0mm (0.00 in.)
19:55 12.0°C (53.6 °F) 7.4 kmh (4.6 mph) NE 81% 1029.1hPa (30.39 inHg) 0.0mm (0.00 in.)
18:55 13.0°C (55.4 °F) 5.6 kmh (3.5 mph) NNE 76% 1029.1hPa (30.39 inHg) 0.0mm (0.00 in.)
17:55 14.0°C (57.2 °F) 7.4 kmh (4.6 mph) E 71% 1029.1hPa (30.39 inHg) 0.0mm (0.00 in.)
16:55 15.0°C (59.0 °F) 9.3 kmh (5.8 mph) ESE 72% 1029.1hPa (30.39 inHg) 0.0mm (0.00 in.)
15:55 16.0°C (60.8 °F) 11.1 kmh (6.9 mph) E 67% 1029.1hPa (30.39 inHg) 0.0mm (0.00 in.)
14:55 17.0°C (62.6 °F) 9.3 kmh (5.8 mph) SE 67% 1029.1hPa (30.39 inHg) 0.0mm (0.00 in.)
13:55 16.0°C (60.8 °F) 13.0 kmh (8.1 mph) ESE 72% 1030.1hPa (30.42 inHg) 0.0mm (0.00 in.)
12:55 17.0°C (62.6 °F) 7.4 kmh (4.6 mph) ESE 63% 1030.1hPa (30.42 inHg) 0.0mm (0.00 in.)
11:55 16.0°C (60.8 °F) 14.8 kmh (9.2 mph) ESE 67% 1031.2hPa (30.45 inHg) 0.0mm (0.00 in.)
10:55 15.0°C (59.0 °F) 16.7 kmh (10.4 mph) E 76% 1031.2hPa (30.45 inHg) 0.0mm (0.00 in.)
9:55 14.0°C (57.2 °F) 14.8 kmh (9.2 mph) E 82% 1031.2hPa (30.45 inHg) 0.0mm (0.00 in.)
8:55 14.0°C (57.2 °F) 14.8 kmh (9.2 mph) ENE 87% 1031.2hPa (30.45 inHg) 0.0mm (0.00 in.)
7:55 12.0°C (53.6 °F) 11.1 kmh (6.9 mph) NE 93% 1030.1hPa (30.42 inHg) 0.0mm (0.00 in.)
6:55 10.0°C (50.0 °F) 9.3 kmh (5.8 mph) NNW 100% 1030.1hPa (30.42 inHg) 0.0mm (0.00 in.)
5:55 9.0°C (48.2 °F) 13.0 kmh (8.1 mph) NNW 100% 1030.1hPa (30.42 inHg) 0.0mm (0.00 in.)
4:55 10.0°C (50.0 °F) 9.3 kmh (5.8 mph) WNW 100% 1030.1hPa (30.42 inHg) 0.0mm (0.00 in.)
3:55 9.0°C (48.2 °F) 11.1 kmh (6.9 mph) NW 100% 1030.1hPa (30.42 inHg) 0.0mm (0.00 in.)
2:55 10.0°C (50.0 °F) 9.3 kmh (5.8 mph) NW 100% 1030.1hPa (30.42 inHg) 0.0mm (0.00 in.)